sim
Sign-in with your pilot id or email,
or register
Callsign
Passwort

Schedule Details

Flight Number: DLH2195 (1)
Departure: Berlin Tegel Airport (EDDT) at 09:30
Arrival: Munich Airport (EDDM) at 10:40
Route: Lufthansa Passenger Schedule. Enter filed route here before submitting Pirep.

Weather Information
Getting current METAR information for EDDT 250820Z VRB02KT 9999 -RA SCT004 BKN035 13/13 Q0996 TEMPO 4500 RA BKN005
Getting current METAR information for EDDM 250820Z 27009KT 9999 RA FEW012 BKN035 09/08 Q1003 BECMG NSW

Schedule Frequency

Route Map